Ignacio, Colorado
Current Conditions -  °F | °C
As of 8:53 AM on Sunday 23 Nov 2014 (Local Time) from KDRO Reporting Station
Clear Clear  
Wind Chill: 28°   Ceiling: Unl
Heat Index: 35°   Visibility: 10mi
Dew Point: 21°   Wind: 9mph
Humidity: 57%   Direction: 250°WSW
Pressure: 29.84"   Gusts: NA
Location:  37.12°N, 107.63°W
Report Text: KDRO 231553Z AUTO 25008KT 10SM CLR 02/M06 A2984 RMK AO2 SLP108 T00171061
Loading
Personal Weather Stations






























Interactive Weather Map New forecast layout! Learn more

10-Day Weather Forecast

Advertisements
Track Severe Weather on mobile